createdAt,value
2023-02-23T00:02:05.773Z,21.23
2023-02-23T00:04:33.814Z,22.05
2023-02-23T00:07:01.196Z,21.35
2023-02-23T00:09:35.213Z,21.23
2023-02-23T00:12:08.048Z,22.55
2023-02-23T00:14:40.371Z,22.05
2023-02-23T00:17:14.524Z,19.27
2023-02-23T00:19:43.579Z,20.98
2023-02-23T00:22:11.844Z,24.42
2023-02-23T00:24:40.563Z,22.92
2023-02-23T00:27:07.903Z,21.02
2023-02-23T00:29:39.617Z,26.77
2023-02-23T00:32:07.048Z,16.27
2023-02-23T00:34:36.630Z,26.85
2023-02-23T00:37:04.082Z,13.68
2023-02-23T00:39:31.421Z,17.45
2023-02-23T00:42:03.470Z,14.98
2023-02-23T00:44:33.672Z,21.35
2023-02-23T00:47:03.712Z,25.00
2023-02-23T00:49:30.652Z,28.92
2023-02-23T00:51:57.609Z,24.02
2023-02-23T00:54:25.266Z,15.38
2023-02-23T00:56:52.650Z,26.80
2023-02-23T00:59:19.825Z,18.50
2023-02-23T01:01:47.075Z,19.23
2023-02-23T01:04:14.665Z,21.38
2023-02-23T01:06:43.061Z,18.50
2023-02-23T01:09:16.073Z,20.20
2023-02-23T01:11:46.626Z,24.15
2023-02-23T01:14:15.013Z,30.27
2023-02-23T01:16:42.008Z,20.25
2023-02-23T01:19:10.819Z,20.23
2023-02-23T01:21:42.192Z,26.20
2023-02-23T01:24:11.816Z,21.90
2023-02-23T01:26:45.029Z,22.65
2023-02-23T01:29:16.400Z,20.95
2023-02-23T01:31:47.371Z,22.42
2023-02-23T01:34:19.139Z,23.85
2023-02-23T01:36:46.477Z,37.45
2023-02-23T01:39:18.374Z,31.98
2023-02-23T01:41:45.827Z,30.90
2023-02-23T01:44:12.747Z,29.75
2023-02-23T01:46:46.152Z,26.20
2023-02-23T01:49:25.634Z,23.98
2023-02-23T01:52:00.519Z,18.65
2023-02-23T01:54:36.288Z,25.23
2023-02-23T01:57:06.522Z,28.70
2023-02-23T01:59:44.669Z,24.23
2023-02-23T02:02:13.311Z,26.75
2023-02-23T02:04:45.653Z,19.25
2023-02-23T02:07:17.670Z,24.83
2023-02-23T02:10:10.233Z,18.88
2023-02-23T02:12:45.731Z,15.80
2023-02-23T02:15:19.947Z,26.95
2023-02-23T02:18:11.878Z,23.85
2023-02-23T02:21:04.619Z,29.42
2023-02-23T02:24:13.156Z,18.70
2023-02-23T02:27:08.012Z,31.98
2023-02-23T02:30:01.803Z,23.63
2023-02-23T02:33:00.979Z,21.73
2023-02-23T02:35:51.603Z,23.75
2023-02-23T02:39:07.074Z,20.45
2023-02-23T02:42:21.569Z,23.70
2023-02-23T02:45:45.863Z,24.92
2023-02-23T02:48:42.038Z,21.70
2023-02-23T02:51:28.588Z,21.23
2023-02-23T02:54:06.731Z,23.52
2023-02-23T02:56:40.369Z,20.60
2023-02-23T02:59:34.246Z,21.73
2023-02-23T03:02:20.859Z,25.27
2023-02-23T03:05:06.853Z,25.58
2023-02-23T03:08:15.080Z,25.73
2023-02-23T03:11:20.416Z,22.60
2023-02-23T03:14:48.318Z,25.98
2023-02-23T03:18:03.005Z,21.30
2023-02-23T03:20:51.404Z,22.20
2023-02-23T03:24:01.270Z,22.77
2023-02-23T03:27:11.807Z,24.50
2023-02-23T03:30:00.329Z,19.88
2023-02-23T03:32:53.546Z,24.48
2023-02-23T03:36:10.747Z,20.08
2023-02-23T03:39:01.661Z,25.90
2023-02-23T03:41:50.088Z,20.17
2023-02-23T03:44:51.211Z,33.70
2023-02-23T03:47:42.116Z,42.83
2023-02-23T03:50:40.024Z,31.38
2023-02-23T03:53:28.937Z,30.15
2023-02-23T03:56:17.774Z,29.67
2023-02-23T03:59:10.607Z,30.08
2023-02-23T04:01:58.304Z,28.20
2023-02-23T04:04:46.390Z,35.80
2023-02-23T04:07:37.476Z,35.03
2023-02-23T04:10:24.846Z,32.28
2023-02-23T04:13:16.421Z,28.70
2023-02-23T04:15:50.969Z,33.50
2023-02-23T04:18:28.099Z,29.25
2023-02-23T04:20:57.512Z,32.60
2023-02-23T04:23:25.481Z,27.90
2023-02-23T04:25:53.715Z,34.95
2023-02-23T04:28:22.668Z,28.70
2023-02-23T04:30:52.449Z,30.88
2023-02-23T04:33:22.004Z,28.33
2023-02-23T04:35:49.463Z,28.77
2023-02-23T04:38:16.911Z,30.73
2023-02-23T04:40:44.492Z,33.05
2023-02-23T04:43:13.227Z,29.58
2023-02-23T04:45:40.915Z,27.55
2023-02-23T04:48:08.607Z,28.58
2023-02-23T04:50:35.956Z,25.48
2023-02-23T04:53:03.265Z,26.92
2023-02-23T04:55:30.683Z,35.05
2023-02-23T04:58:00.206Z,29.08
2023-02-23T05:00:29.321Z,34.13
2023-02-23T05:02:57.559Z,29.98
2023-02-23T05:05:25.049Z,30.85
2023-02-23T05:07:52.978Z,25.23
2023-02-23T05:10:20.333Z,34.35
2023-02-23T05:12:47.723Z,29.92
2023-02-23T05:15:15.227Z,26.85
2023-02-23T05:17:42.742Z,31.85
2023-02-23T05:20:13.550Z,31.40
2023-02-23T05:22:40.630Z,23.55
2023-02-23T05:25:09.504Z,38.20
2023-02-23T05:27:37.129Z,30.95
2023-02-23T05:30:07.828Z,29.65
2023-02-23T05:32:35.458Z,33.28
2023-02-23T05:35:03.202Z,34.30
2023-02-23T05:37:30.598Z,42.38
2023-02-23T05:39:57.935Z,28.45
2023-02-23T05:42:25.306Z,26.23
2023-02-23T05:44:52.678Z,30.10
2023-02-23T05:47:20.016Z,29.48
2023-02-23T05:49:47.106Z,26.83
2023-02-23T05:52:14.043Z,34.78
2023-02-23T05:54:41.326Z,33.17
2023-02-23T05:57:08.760Z,31.63
2023-02-23T05:59:36.129Z,33.03
2023-02-23T06:02:05.926Z,38.13
2023-02-23T06:04:33.603Z,38.40
2023-02-23T06:07:00.932Z,30.52
2023-02-23T06:09:28.362Z,27.50
2023-02-23T06:11:55.685Z,35.45
2023-02-23T06:14:23.014Z,34.13
2023-02-23T06:16:50.588Z,37.80
2023-02-23T06:19:18.059Z,26.80
2023-02-23T06:21:45.856Z,33.38
2023-02-23T06:24:13.444Z,34.05
2023-02-23T06:26:42.367Z,34.05
2023-02-23T06:29:11.973Z,34.33
2023-02-23T06:31:39.544Z,24.27
2023-02-23T06:34:06.970Z,39.30
2023-02-23T06:36:34.470Z,36.17
2023-02-23T06:39:02.086Z,36.13
2023-02-23T06:41:29.496Z,36.90
2023-02-23T06:43:56.851Z,32.05
2023-02-23T06:46:24.658Z,32.30
2023-02-23T06:48:55.937Z,45.88
2023-02-23T06:51:23.793Z,39.50
2023-02-23T06:53:53.313Z,35.97
2023-02-23T06:56:20.433Z,40.83
2023-02-23T06:58:48.031Z,35.13
2023-02-23T07:01:15.887Z,36.58
2023-02-23T07:03:43.432Z,36.58
2023-02-23T07:06:10.862Z,41.22
2023-02-23T07:08:38.758Z,35.78
2023-02-23T07:11:11.159Z,46.85
2023-02-23T07:13:38.551Z,34.63
2023-02-23T07:16:07.203Z,44.72
2023-02-23T07:18:34.953Z,42.47
2023-02-23T07:21:02.295Z,32.53
2023-02-23T07:23:29.669Z,33.78
2023-02-23T07:25:58.039Z,27.50
2023-02-23T07:28:27.344Z,28.92
2023-02-23T07:30:57.371Z,37.03
2023-02-23T07:33:25.290Z,44.95
2023-02-23T07:35:52.817Z,37.55
2023-02-23T07:38:20.432Z,37.97
2023-02-23T07:40:49.586Z,39.28
2023-02-23T07:43:16.940Z,33.63
2023-02-23T07:45:46.502Z,39.70
2023-02-23T07:48:13.679Z,27.95
2023-02-23T07:50:42.384Z,32.67
2023-02-23T07:53:10.077Z,31.95
2023-02-23T07:55:38.453Z,36.58
2023-02-23T07:58:06.683Z,26.20
2023-02-23T08:00:35.038Z,30.25
2023-02-23T08:03:02.423Z,23.27
2023-02-23T08:05:30.409Z,35.40
2023-02-23T08:07:59.153Z,34.53
2023-02-23T08:10:26.785Z,29.40
2023-02-23T08:12:54.271Z,26.17
2023-02-23T08:15:21.630Z,37.55
2023-02-23T08:17:49.060Z,31.63
2023-02-23T08:20:16.429Z,39.80
2023-02-23T08:22:49.650Z,30.40
2023-02-23T08:25:18.040Z,34.70
2023-02-23T08:27:45.877Z,42.58
2023-02-23T08:30:15.775Z,33.15
2023-02-23T08:32:44.620Z,29.10
2023-02-23T08:35:12.825Z,31.95
2023-02-23T08:37:41.854Z,39.25
2023-02-23T08:40:10.307Z,20.55
2023-02-23T08:42:38.248Z,36.42
2023-02-23T08:45:08.585Z,47.55
2023-02-23T08:47:36.909Z,49.92
2023-02-23T08:50:05.692Z,39.10
2023-02-23T08:52:34.105Z,44.08
2023-02-23T08:55:01.648Z,32.55
2023-02-23T08:57:29.620Z,34.97
2023-02-23T08:59:57.137Z,38.55
2023-02-23T09:02:24.936Z,50.53
2023-02-23T09:04:55.283Z,41.60
2023-02-23T09:07:23.525Z,45.00
2023-02-23T09:09:56.395Z,37.88
2023-02-23T09:12:23.820Z,54.85
2023-02-23T09:14:53.711Z,48.42
2023-02-23T09:17:22.975Z,52.30
2023-02-23T09:19:51.281Z,69.97
2023-02-23T09:22:20.861Z,64.10
2023-02-23T09:24:48.446Z,60.67
2023-02-23T09:27:18.558Z,62.10
2023-02-23T09:29:45.926Z,46.58
2023-02-23T09:32:15.676Z,47.08
2023-02-23T09:34:43.356Z,42.28
2023-02-23T09:37:10.683Z,44.28
2023-02-23T09:39:39.164Z,43.53
2023-02-23T09:42:26.538Z,41.05
2023-02-23T09:45:39.918Z,39.30
2023-02-23T09:48:23.045Z,45.22
2023-02-23T09:50:58.311Z,46.05
2023-02-23T09:53:40.998Z,51.35
2023-02-23T09:56:23.675Z,54.00
2023-02-23T09:58:51.026Z,46.33
2023-02-23T10:01:49.078Z,41.40
2023-02-23T10:04:24.213Z,36.13
2023-02-23T10:07:09.425Z,47.25
2023-02-23T10:10:07.385Z,34.95
2023-02-23T10:13:09.436Z,31.77
2023-02-23T10:16:04.361Z,37.60
2023-02-23T10:19:04.444Z,42.90
2023-02-23T10:21:40.008Z,44.15
2023-02-23T10:24:33.797Z,33.70
2023-02-23T10:27:12.572Z,33.83
2023-02-23T10:29:51.912Z,33.67
2023-02-23T10:32:43.071Z,20.58
2023-02-23T10:35:19.334Z,24.85
2023-02-23T10:37:47.682Z,34.10
2023-02-23T10:40:18.548Z,26.45
2023-02-23T10:42:45.893Z,23.88
2023-02-23T10:45:23.001Z,26.98
2023-02-23T10:48:06.234Z,25.92
2023-02-23T10:50:36.706Z,27.33
2023-02-23T10:53:18.343Z,16.27
2023-02-23T10:55:47.083Z,29.70
2023-02-23T10:58:20.569Z,18.95
2023-02-23T11:01:02.968Z,29.00
2023-02-23T11:06:04.173Z,19.83
2023-02-23T11:08:39.544Z,13.95
2023-02-23T11:11:15.928Z,15.23
2023-02-23T11:13:46.761Z,12.15
2023-02-23T11:16:25.435Z,15.20
2023-02-23T11:19:01.114Z,9.95
2023-02-23T11:21:35.477Z,11.50
2023-02-23T11:24:18.112Z,14.52
2023-02-23T11:26:47.779Z,14.68
2023-02-23T11:29:22.759Z,10.57
2023-02-23T11:31:58.440Z,14.57
2023-02-23T11:34:35.393Z,15.40
2023-02-23T11:37:27.083Z,11.07
2023-02-23T11:39:59.741Z,14.57
2023-02-23T11:42:35.612Z,13.57
2023-02-23T11:45:08.138Z,3.97
2023-02-23T11:47:41.443Z,4.60
2023-02-23T11:50:22.221Z,9.68
2023-02-23T11:53:02.028Z,4.05
2023-02-23T11:55:31.671Z,4.20
2023-02-23T11:58:37.615Z,7.65
2023-02-23T12:01:12.181Z,4.93
2023-02-23T12:03:47.830Z,4.78
2023-02-23T12:06:36.350Z,5.25
2023-02-23T12:09:28.159Z,5.43
2023-02-23T12:12:14.192Z,6.70
2023-02-23T12:14:53.945Z,3.90
2023-02-23T12:17:28.357Z,6.38
2023-02-23T12:20:16.540Z,3.83
2023-02-23T12:22:52.438Z,7.35
2023-02-23T12:25:55.998Z,6.28
2023-02-23T12:28:52.975Z,6.80
2023-02-23T12:31:40.439Z,13.88
2023-02-23T12:34:40.091Z,3.63
2023-02-23T12:37:09.927Z,6.80
2023-02-23T12:39:43.728Z,6.10
2023-02-23T12:42:23.914Z,3.50
2023-02-23T12:45:06.026Z,7.22
2023-02-23T12:47:59.345Z,11.45
2023-02-23T12:50:43.440Z,12.38
2023-02-23T12:53:37.728Z,7.68
2023-02-23T12:56:46.782Z,6.15
2023-02-23T13:00:24.021Z,9.15
2023-02-23T13:03:40.207Z,14.23
2023-02-23T13:06:36.843Z,12.88
2023-02-23T13:09:29.843Z,4.03
2023-02-23T13:12:30.181Z,9.57
2023-02-23T13:15:15.655Z,5.05
2023-02-23T13:17:51.781Z,4.85
2023-02-23T13:20:25.348Z,7.07
2023-02-23T13:23:12.754Z,8.07
2023-02-23T13:26:09.886Z,18.67
2023-02-23T13:29:07.809Z,17.35
2023-02-23T13:31:38.666Z,9.07
2023-02-23T13:34:11.905Z,15.90
2023-02-23T13:36:40.733Z,10.68
2023-02-23T13:39:45.152Z,12.32
2023-02-23T13:42:56.688Z,5.53
2023-02-23T13:45:32.384Z,4.00
2023-02-23T13:48:31.668Z,10.80
2023-02-23T13:51:30.482Z,9.80
2023-02-23T13:54:33.150Z,8.40
2023-02-23T13:57:05.726Z,3.42
2023-02-23T13:59:43.541Z,5.75
2023-02-23T14:02:35.860Z,5.68
2023-02-23T14:07:54.973Z,4.88
2023-02-23T14:10:25.783Z,4.68
2023-02-23T14:13:15.528Z,9.27
2023-02-23T14:15:53.608Z,5.05
2023-02-23T14:18:21.055Z,15.55
2023-02-23T14:21:15.980Z,4.30
2023-02-23T14:24:21.503Z,6.85
2023-02-23T14:27:41.598Z,4.38
2023-02-23T14:30:12.124Z,4.57
2023-02-23T14:32:45.634Z,6.32
2023-02-23T14:35:34.427Z,3.47
2023-02-23T14:38:10.257Z,8.05
2023-02-23T14:40:43.394Z,5.78
2023-02-23T14:43:51.380Z,2.60
2023-02-23T14:46:22.034Z,4.35
2023-02-23T14:49:10.247Z,3.67
2023-02-23T14:51:48.529Z,2.95
2023-02-23T14:54:36.166Z,7.35
2023-02-23T14:57:19.139Z,4.28
2023-02-23T15:00:02.738Z,5.93
2023-02-23T15:02:31.245Z,3.95
2023-02-23T15:04:58.650Z,8.10
2023-02-23T15:07:40.297Z,8.77
2023-02-23T15:10:17.708Z,11.00
2023-02-23T15:12:47.081Z,10.07
2023-02-23T15:15:20.473Z,6.50
2023-02-23T15:17:53.315Z,6.57
2023-02-23T15:20:28.644Z,5.35
2023-02-23T15:22:59.184Z,6.55
2023-02-23T15:25:35.044Z,13.63
2023-02-23T15:28:29.594Z,10.25
2023-02-23T15:31:01.128Z,10.48
2023-02-23T15:33:28.958Z,7.75
2023-02-23T15:36:10.102Z,6.45
2023-02-23T15:38:46.011Z,8.57
2023-02-23T15:41:37.219Z,9.77
2023-02-23T15:44:22.752Z,11.80
2023-02-23T15:47:00.317Z,5.35
2023-02-23T15:49:37.911Z,11.10
2023-02-23T15:52:15.578Z,5.95
2023-02-23T15:55:10.111Z,7.70
2023-02-23T15:58:00.068Z,4.57
2023-02-23T16:00:38.454Z,4.47
2023-02-23T16:03:07.958Z,4.18
2023-02-23T16:05:46.517Z,6.75
2023-02-23T16:08:25.263Z,4.88
2023-02-23T16:11:02.237Z,5.35
2023-02-23T16:13:29.237Z,6.88
2023-02-23T16:15:57.020Z,6.22
2023-02-23T16:18:36.029Z,6.90
2023-02-23T16:21:04.815Z,9.85
2023-02-23T16:23:41.138Z,11.00
2023-02-23T16:26:12.875Z,5.28
2023-02-23T16:28:45.915Z,9.57
2023-02-23T16:31:14.538Z,12.07
2023-02-23T16:33:52.926Z,11.35
2023-02-23T16:36:24.117Z,10.00
2023-02-23T16:39:02.932Z,9.15
2023-02-23T16:41:34.476Z,13.38
2023-02-23T16:44:07.374Z,12.98
2023-02-23T16:47:03.164Z,9.05
2023-02-23T16:49:30.585Z,9.95
2023-02-23T16:51:59.466Z,12.45
2023-02-23T16:54:27.110Z,7.18
2023-02-23T16:56:56.026Z,10.80
2023-02-23T16:59:24.149Z,9.52
2023-02-23T17:01:51.574Z,13.00
2023-02-23T17:04:20.744Z,9.57
2023-02-23T17:06:57.637Z,7.68
2023-02-23T17:09:25.363Z,14.10
2023-02-23T17:11:52.658Z,9.25
2023-02-23T17:14:28.257Z,7.85
2023-02-23T17:16:55.362Z,6.47
2023-02-23T17:19:24.657Z,10.52
2023-02-23T17:21:53.019Z,8.02
2023-02-23T17:24:24.406Z,10.82
2023-02-23T17:26:55.448Z,9.40
2023-02-23T17:29:22.621Z,10.67
2023-02-23T17:31:50.544Z,11.00
2023-02-23T17:34:17.795Z,15.35
2023-02-23T17:36:45.120Z,11.68
2023-02-23T17:39:14.314Z,12.10
2023-02-23T17:41:41.471Z,9.88
2023-02-23T17:44:09.018Z,11.63
2023-02-23T17:46:36.393Z,11.00
2023-02-23T17:49:03.763Z,17.65
2023-02-23T17:51:30.680Z,10.65
2023-02-23T17:53:57.954Z,10.48
2023-02-23T17:56:25.501Z,10.68
2023-02-23T17:58:52.949Z,16.73
2023-02-23T18:01:20.368Z,11.40
2023-02-23T18:03:47.963Z,12.27
2023-02-23T18:06:17.209Z,12.50
2023-02-23T18:08:45.245Z,11.20
2023-02-23T18:11:12.787Z,10.20
2023-02-23T18:13:40.181Z,12.48
2023-02-23T18:16:10.480Z,9.35
2023-02-23T18:18:45.043Z,21.08
2023-02-23T18:21:19.775Z,10.27
2023-02-23T18:23:47.784Z,9.45
2023-02-23T18:26:24.652Z,6.93
2023-02-23T18:28:51.902Z,11.18
2023-02-23T18:31:22.713Z,6.70
2023-02-23T18:33:52.713Z,15.30
2023-02-23T18:36:24.255Z,8.52
2023-02-23T18:38:51.764Z,12.88
2023-02-23T18:41:19.137Z,9.25
2023-02-23T18:43:46.648Z,10.55
2023-02-23T18:46:14.433Z,11.73
2023-02-23T18:48:42.157Z,7.90
2023-02-23T18:51:14.382Z,10.18
2023-02-23T18:56:12.852Z,11.25
2023-02-23T18:58:40.405Z,7.80
2023-02-23T19:01:12.874Z,8.10
2023-02-23T19:03:41.501Z,11.82
2023-02-23T19:06:12.033Z,9.80
2023-02-23T19:08:39.714Z,9.90
2023-02-23T19:11:07.244Z,7.78
2023-02-23T19:13:34.382Z,8.10
2023-02-23T19:16:06.966Z,8.63
2023-02-23T19:18:35.597Z,12.38
2023-02-23T19:21:04.102Z,7.60
2023-02-23T19:23:31.546Z,11.25
2023-02-23T19:26:02.193Z,11.38
2023-02-23T19:28:30.059Z,10.00
2023-02-23T19:31:09.655Z,10.80
2023-02-23T19:33:39.904Z,8.52
2023-02-23T19:36:13.172Z,6.07
2023-02-23T19:38:42.421Z,11.52
2023-02-23T19:41:12.767Z,9.90
2023-02-23T19:43:39.667Z,9.77
2023-02-23T19:46:09.874Z,6.45
2023-02-23T19:48:37.885Z,8.05
2023-02-23T19:51:05.766Z,8.70
2023-02-23T19:53:33.422Z,8.63
2023-02-23T19:56:11.618Z,14.05
2023-02-23T19:58:39.058Z,8.55
2023-02-23T20:01:08.874Z,12.77
2023-02-23T20:03:39.448Z,12.60
2023-02-23T20:06:07.374Z,9.63
2023-02-23T20:08:34.701Z,8.70
2023-02-23T20:11:06.599Z,11.60
2023-02-23T20:13:34.729Z,9.63
2023-02-23T20:16:11.317Z,8.00
2023-02-23T20:18:40.140Z,10.63
2023-02-23T20:21:23.308Z,11.68
2023-02-23T20:23:50.993Z,8.38
2023-02-23T20:26:31.948Z,15.60
2023-02-23T20:28:59.315Z,20.20
2023-02-23T20:31:30.579Z,10.82
2023-02-23T20:34:01.905Z,15.15
2023-02-23T20:36:28.914Z,12.32
2023-02-23T20:38:56.245Z,10.98
2023-02-23T20:41:25.516Z,9.95
2023-02-23T20:43:52.695Z,11.70
2023-02-23T20:46:20.244Z,10.30
2023-02-23T20:48:49.130Z,11.40
2023-02-23T20:51:18.969Z,10.48
2023-02-23T20:53:48.126Z,11.70
2023-02-23T20:56:18.563Z,11.18
2023-02-23T20:58:46.350Z,11.23
2023-02-23T21:01:16.821Z,11.05
2023-02-23T21:03:44.255Z,10.27
2023-02-23T21:06:11.689Z,10.98
2023-02-23T21:08:42.310Z,10.77
2023-02-23T21:11:09.353Z,9.20
2023-02-23T21:13:36.868Z,13.70
2023-02-23T21:16:03.947Z,10.93
2023-02-23T21:18:31.680Z,13.93
2023-02-23T21:21:06.929Z,17.00
2023-02-23T21:23:33.833Z,9.75
2023-02-23T21:26:09.696Z,11.38
2023-02-23T21:28:39.221Z,11.75
2023-02-23T21:31:06.674Z,11.63
2023-02-23T21:33:33.579Z,10.57
2023-02-23T21:36:00.467Z,15.30
2023-02-23T21:38:27.358Z,19.40
2023-02-23T21:40:54.245Z,12.20
2023-02-23T21:43:23.030Z,19.25
2023-02-23T21:45:49.926Z,13.35
2023-02-23T21:48:16.864Z,10.73
2023-02-23T21:50:44.576Z,8.15
2023-02-23T21:53:12.600Z,8.45
2023-02-23T21:55:42.616Z,13.10
2023-02-23T21:58:09.847Z,11.15
2023-02-23T22:00:37.032Z,7.40
2023-02-23T22:03:04.503Z,12.75
2023-02-23T22:05:35.059Z,21.10
2023-02-23T22:08:02.433Z,13.98
2023-02-23T22:10:32.049Z,14.88
2023-02-23T22:13:02.949Z,13.63
2023-02-23T22:15:30.368Z,18.20
2023-02-23T22:17:57.264Z,13.35
2023-02-23T22:20:25.448Z,15.50
2023-02-23T22:22:52.939Z,11.65
2023-02-23T22:25:20.529Z,23.73
2023-02-23T22:27:47.882Z,13.30
2023-02-23T22:30:15.618Z,18.40
2023-02-23T22:32:43.509Z,20.08
2023-02-23T22:35:11.405Z,23.42
2023-02-23T22:37:38.978Z,22.48
2023-02-23T22:40:25.150Z,18.80
2023-02-23T22:42:54.170Z,13.68
2023-02-23T22:45:21.453Z,15.50
2023-02-23T22:47:48.895Z,20.23
2023-02-23T22:50:19.193Z,13.95
2023-02-23T22:52:47.032Z,13.55
2023-02-23T22:55:14.437Z,13.23
2023-02-23T22:57:41.790Z,17.85
2023-02-23T23:00:11.745Z,16.42
2023-02-23T23:02:38.976Z,16.77
2023-02-23T23:05:07.034Z,16.88
2023-02-23T23:07:34.048Z,17.50
2023-02-23T23:10:05.701Z,15.30
2023-02-23T23:12:34.353Z,25.67
2023-02-23T23:15:02.269Z,17.90
2023-02-23T23:17:30.821Z,14.15
2023-02-23T23:20:02.919Z,19.88
2023-02-23T23:22:31.540Z,14.30
2023-02-23T23:24:58.483Z,15.40
2023-02-23T23:27:25.616Z,22.65
2023-02-23T23:29:52.513Z,16.67
2023-02-23T23:32:21.064Z,13.63
2023-02-23T23:34:49.325Z,18.85
2023-02-23T23:37:18.466Z,21.20
2023-02-23T23:39:45.996Z,14.23
2023-02-23T23:42:13.310Z,20.40
2023-02-23T23:44:40.305Z,15.02
2023-02-23T23:47:07.918Z,18.48
2023-02-23T23:49:38.006Z,19.95
2023-02-23T23:52:06.211Z,19.70
2023-02-23T23:54:39.421Z,22.48
2023-02-23T23:57:07.182Z,23.45
2023-02-23T23:59:35.787Z,15.80
